createdAt,value
2023-01-19T00:00:08.923Z,41.80
2023-01-19T00:00:41.102Z,39.83
2023-01-19T00:01:15.918Z,29.33
2023-01-19T00:01:48.104Z,25.02
2023-01-19T00:02:20.376Z,29.02
2023-01-19T00:02:55.268Z,32.60
2023-01-19T00:03:27.442Z,30.13
2023-01-19T00:03:59.715Z,27.20
2023-01-19T00:04:34.376Z,24.30
2023-01-19T00:05:09.995Z,33.05
2023-01-19T00:05:42.930Z,39.20
2023-01-19T00:06:17.706Z,24.65
2023-01-19T00:06:49.861Z,25.88
2023-01-19T00:07:21.920Z,26.77
2023-01-19T00:07:56.727Z,35.75
2023-01-19T00:08:28.852Z,29.38
2023-01-19T00:09:01.129Z,38.45
2023-01-19T00:09:38.423Z,78.22
2023-01-19T00:10:11.639Z,29.90
2023-01-19T00:10:45.883Z,38.33
2023-01-19T00:11:21.077Z,39.92
2023-01-19T00:11:53.202Z,73.50
2023-01-19T00:12:26.003Z,42.53
2023-01-19T00:13:01.142Z,30.42
2023-01-19T00:13:33.627Z,35.72
2023-01-19T00:14:05.907Z,40.47
2023-01-19T00:14:40.594Z,32.88
2023-01-19T00:15:13.002Z,43.22
2023-01-19T00:15:46.070Z,42.10
2023-01-19T00:16:23.285Z,57.05
2023-01-19T00:16:55.458Z,29.33
2023-01-19T00:17:27.592Z,47.08
2023-01-19T00:18:02.375Z,31.83
2023-01-19T00:18:34.513Z,37.28
2023-01-19T00:19:09.284Z,46.60
2023-01-19T00:19:41.417Z,33.55
2023-01-19T00:20:16.554Z,69.97
2023-01-19T00:20:51.845Z,26.10
2023-01-19T00:21:24.710Z,30.20
2023-01-19T00:21:56.936Z,30.08
2023-01-19T00:22:31.662Z,41.33
2023-01-19T00:23:04.956Z,30.00
2023-01-19T00:23:37.230Z,32.80
2023-01-19T00:24:14.009Z,32.22
2023-01-19T00:24:46.151Z,30.45
2023-01-19T00:25:18.288Z,33.30
2023-01-19T00:25:53.205Z,32.03
2023-01-19T00:26:25.466Z,30.13
2023-01-19T00:26:57.538Z,30.17
2023-01-19T00:27:35.053Z,27.05
2023-01-19T00:28:07.225Z,32.85
2023-01-19T00:28:39.352Z,38.90
2023-01-19T00:29:16.156Z,30.58
2023-01-19T00:29:48.262Z,28.90
2023-01-19T00:30:20.521Z,31.98
2023-01-19T00:30:55.238Z,29.15
2023-01-19T00:31:30.105Z,28.67
2023-01-19T00:32:05.693Z,43.30
2023-01-19T00:32:37.752Z,38.30
2023-01-19T00:33:10.630Z,30.95
2023-01-19T00:33:48.922Z,27.40
2023-01-19T00:34:21.077Z,28.65
2023-01-19T00:34:53.273Z,36.78
2023-01-19T00:35:31.546Z,28.55
2023-01-19T00:36:04.060Z,30.15
2023-01-19T00:36:38.728Z,30.27
2023-01-19T00:37:10.851Z,37.25
2023-01-19T00:37:46.143Z,27.35
2023-01-19T00:38:20.963Z,31.25
2023-01-19T00:38:53.179Z,26.27
2023-01-19T00:39:25.398Z,33.63
2023-01-19T00:40:00.116Z,21.58
2023-01-19T00:40:32.312Z,22.50
2023-01-19T00:41:04.422Z,30.95
2023-01-19T00:41:51.584Z,26.50
2023-01-19T00:42:38.709Z,30.10
2023-01-19T00:43:13.534Z,30.73
2023-01-19T00:43:45.679Z,27.90
2023-01-19T00:44:17.836Z,31.23
2023-01-19T00:44:50.002Z,30.63
2023-01-19T00:45:26.991Z,29.05
2023-01-19T00:45:59.235Z,30.20
2023-01-19T00:46:31.373Z,37.75
2023-01-19T00:47:06.117Z,35.40
2023-01-19T00:47:39.335Z,30.05
2023-01-19T00:48:11.516Z,35.05
2023-01-19T00:48:46.349Z,32.83
2023-01-19T00:49:18.756Z,23.30
2023-01-19T00:49:50.950Z,28.23
2023-01-19T00:50:24.237Z,27.25
2023-01-19T00:51:01.671Z,22.90
2023-01-19T00:51:33.846Z,31.13
2023-01-19T00:52:06.278Z,29.17
2023-01-19T00:52:38.413Z,27.17
2023-01-19T00:53:13.085Z,28.75
2023-01-19T00:53:45.230Z,37.38
2023-01-19T00:54:17.811Z,28.83
2023-01-19T00:54:52.581Z,26.88
2023-01-19T00:55:24.690Z,22.08
2023-01-19T00:55:56.794Z,26.38
2023-01-19T00:56:31.467Z,26.35
2023-01-19T00:57:03.766Z,24.70
2023-01-19T00:57:39.035Z,29.77
2023-01-19T00:58:11.222Z,26.13
2023-01-19T00:58:43.383Z,28.48
2023-01-19T00:59:18.151Z,33.28
2023-01-19T04:41:11.497Z,89.07
2023-01-19T04:41:44.059Z,81.88
2023-01-19T04:42:16.987Z,71.88
2023-01-19T04:42:51.755Z,90.30
2023-01-19T04:43:24.313Z,59.50
2023-01-19T04:43:56.470Z,57.28
2023-01-19T04:44:31.778Z,68.03
2023-01-19T04:45:04.597Z,85.15
2023-01-19T04:45:37.134Z,62.25
2023-01-19T04:46:11.839Z,67.10
2023-01-19T04:46:44.024Z,80.07
2023-01-19T04:47:16.186Z,59.03
2023-01-19T04:47:50.928Z,59.55
2023-01-19T04:48:23.044Z,64.10
2023-01-19T04:48:55.197Z,57.80
2023-01-19T04:49:30.168Z,60.83
2023-01-19T04:50:02.726Z,70.28
2023-01-19T04:50:34.913Z,51.00
2023-01-19T04:51:09.884Z,63.00
2023-01-19T04:51:42.046Z,52.17
2023-01-19T04:52:14.166Z,63.45
2023-01-19T04:52:49.526Z,34.22
2023-01-19T04:53:21.682Z,48.25
2023-01-19T04:53:53.777Z,53.20
2023-01-19T04:54:28.934Z,50.45
2023-01-19T04:55:01.174Z,46.13
2023-01-19T04:55:33.482Z,43.90
2023-01-19T04:56:11.217Z,43.30
2023-01-19T04:56:43.311Z,57.80
2023-01-19T04:57:15.452Z,64.78
2023-01-19T04:57:50.163Z,29.08
2023-01-19T04:58:22.576Z,46.03
2023-01-19T04:58:54.718Z,56.78
2023-01-19T04:59:29.456Z,33.45
2023-01-19T05:00:01.602Z,36.10
2023-01-19T05:00:33.889Z,48.75
2023-01-19T05:01:11.286Z,45.55
2023-01-19T05:01:50.694Z,54.83
2023-01-19T05:02:28.606Z,37.05
2023-01-19T05:03:06.386Z,46.63
2023-01-19T05:03:38.677Z,66.18
2023-01-19T05:04:10.897Z,39.85
2023-01-19T05:04:47.985Z,39.40
2023-01-19T05:05:30.438Z,48.88
2023-01-19T05:06:05.198Z,44.20
2023-01-19T05:06:37.839Z,35.85
2023-01-19T05:07:12.294Z,48.70
2023-01-19T05:07:49.739Z,38.47
2023-01-19T05:08:21.828Z,29.08
2023-01-19T05:08:53.967Z,38.47
2023-01-19T05:09:29.180Z,53.47
2023-01-19T05:10:01.437Z,59.50
2023-01-19T05:10:34.006Z,52.88
2023-01-19T05:11:11.411Z,52.20
2023-01-19T05:11:43.570Z,51.30
2023-01-19T05:12:15.917Z,36.65
2023-01-19T05:12:51.370Z,46.28
2023-01-19T05:13:26.270Z,50.25
2023-01-19T05:13:58.578Z,35.90
2023-01-19T05:14:33.241Z,44.10
2023-01-19T05:15:07.943Z,42.75
2023-01-19T05:15:40.096Z,32.97
2023-01-19T05:16:17.393Z,59.30
2023-01-19T05:16:49.542Z,38.60
2023-01-19T05:17:21.692Z,60.83
2023-01-19T05:17:58.141Z,48.03
2023-01-19T05:18:36.020Z,91.32
2023-01-19T05:19:10.980Z,76.30
2023-01-19T05:19:43.126Z,70.78
2023-01-19T05:20:16.459Z,62.10
2023-01-19T05:20:51.409Z,40.97
2023-01-19T05:21:23.564Z,45.55
2023-01-19T05:21:59.717Z,80.10
2023-01-19T05:22:34.423Z,42.45
2023-01-19T05:23:06.615Z,40.22
2023-01-19T05:23:38.998Z,40.53
2023-01-19T05:24:15.456Z,39.53
2023-01-19T05:24:47.569Z,34.88
2023-01-19T05:25:20.180Z,66.68
2023-01-19T05:25:56.458Z,51.63
2023-01-19T05:26:31.247Z,49.30
2023-01-19T05:27:03.603Z,70.20
2023-01-19T05:27:38.799Z,43.20
2023-01-19T05:28:11.325Z,51.97
2023-01-19T05:28:43.478Z,49.15
2023-01-19T05:29:18.476Z,54.08
2023-01-19T05:29:50.570Z,46.00
2023-01-19T05:30:22.830Z,45.55
2023-01-19T05:30:57.728Z,38.13
2023-01-19T05:31:30.106Z,55.45
2023-01-19T05:32:02.457Z,50.95
2023-01-19T05:32:37.250Z,49.67
2023-01-19T05:33:09.490Z,63.15
2023-01-19T05:33:42.618Z,67.28
2023-01-19T05:34:17.694Z,82.32
2023-01-19T05:34:49.812Z,53.20
2023-01-19T05:35:31.359Z,53.92
2023-01-19T05:36:10.455Z,57.97
2023-01-19T05:36:45.460Z,51.20
2023-01-19T05:37:17.667Z,55.90
2023-01-19T05:37:55.636Z,30.90
2023-01-19T05:38:35.501Z,62.00
2023-01-19T05:39:08.630Z,82.90
2023-01-19T05:39:43.366Z,54.33
2023-01-19T05:40:16.117Z,49.95
2023-01-19T05:40:48.553Z,57.10
2023-01-19T05:41:23.389Z,53.30
2023-01-19T05:41:58.071Z,57.55
2023-01-19T05:42:33.071Z,45.08
2023-01-19T05:43:05.559Z,85.63
2023-01-19T05:43:40.379Z,77.10
2023-01-19T05:44:12.967Z,55.42
2023-01-19T05:44:45.119Z,59.85
2023-01-19T05:45:20.216Z,71.50
2023-01-19T05:45:58.387Z,56.50
2023-01-19T05:46:36.655Z,59.42
2023-01-19T05:47:11.918Z,62.42
2023-01-19T05:47:44.037Z,61.83
2023-01-19T05:48:18.808Z,49.13
2023-01-19T05:48:51.450Z,45.17
2023-01-19T05:49:36.155Z,45.85
2023-01-19T05:50:12.140Z,45.08
2023-01-19T05:50:47.278Z,40.30
2023-01-19T05:51:19.520Z,49.10
2023-01-19T05:51:59.316Z,61.88
2023-01-19T05:52:31.547Z,49.90
2023-01-19T05:53:04.099Z,67.72
2023-01-19T05:53:39.012Z,64.65
2023-01-19T05:54:15.394Z,73.10
2023-01-19T05:54:48.341Z,60.33
2023-01-19T05:55:23.624Z,67.93
2023-01-19T05:56:00.424Z,62.85
2023-01-19T05:56:39.520Z,56.28
2023-01-19T05:57:14.615Z,50.20
2023-01-19T05:57:49.382Z,40.90
2023-01-19T05:58:21.611Z,40.03
2023-01-19T05:58:53.821Z,44.00
2023-01-19T05:59:28.606Z,42.22
2023-01-19T06:00:03.492Z,61.28
2023-01-19T06:00:41.331Z,58.00
2023-01-19T06:01:16.109Z,62.40
2023-01-19T06:01:48.285Z,43.65
2023-01-19T06:02:21.816Z,57.78
2023-01-19T06:02:56.842Z,38.70
2023-01-19T06:03:29.136Z,40.15
2023-01-19T06:04:03.969Z,54.13
2023-01-19T06:04:36.268Z,72.20
2023-01-19T06:05:12.057Z,57.90
2023-01-19T06:05:44.221Z,68.43
2023-01-19T06:06:17.283Z,71.55
2023-01-19T06:06:52.440Z,50.42
2023-01-19T06:07:25.649Z,61.10
2023-01-19T06:07:58.759Z,58.45
2023-01-19T06:08:33.881Z,48.45
2023-01-19T06:09:07.893Z,41.92
2023-01-19T06:09:40.088Z,38.75
2023-01-19T06:10:16.016Z,77.47
2023-01-19T06:10:50.586Z,45.58
2023-01-19T06:11:22.742Z,52.40
2023-01-19T06:11:56.659Z,43.85
2023-01-19T06:12:35.259Z,43.67
2023-01-19T06:13:09.563Z,59.33
2023-01-19T06:13:42.261Z,49.08
2023-01-19T06:14:17.215Z,58.83
2023-01-19T06:14:49.408Z,57.88
2023-01-19T06:15:21.641Z,57.83
2023-01-19T06:16:00.622Z,55.40
2023-01-19T06:16:32.799Z,53.88
2023-01-19T06:17:06.210Z,69.43
2023-01-19T06:17:40.940Z,48.88
2023-01-19T06:18:14.882Z,50.53
2023-01-19T06:18:46.998Z,35.90
2023-01-19T06:19:21.749Z,73.70
2023-01-19T06:19:53.954Z,47.47
2023-01-19T06:20:26.384Z,82.85
2023-01-19T06:21:01.705Z,55.33
2023-01-19T06:21:34.446Z,56.25
2023-01-19T06:22:09.754Z,60.33
2023-01-19T06:22:41.891Z,69.68
2023-01-19T06:23:14.077Z,43.85
2023-01-19T06:23:48.872Z,56.53
2023-01-19T06:24:21.009Z,78.47
2023-01-19T06:24:53.136Z,77.85
2023-01-19T06:25:31.134Z,69.30
2023-01-19T06:26:03.938Z,76.35
2023-01-19T06:26:36.252Z,76.30
2023-01-19T06:27:11.496Z,78.60
2023-01-19T06:27:48.845Z,51.72
2023-01-19T06:28:21.087Z,82.60
2023-01-19T06:28:55.921Z,71.05
2023-01-19T06:29:28.761Z,48.75
2023-01-19T06:30:01.640Z,61.90
2023-01-19T06:30:36.595Z,64.75
2023-01-19T06:31:08.889Z,59.88
2023-01-19T06:31:41.289Z,53.88
2023-01-19T06:32:16.067Z,55.53
2023-01-19T06:32:48.198Z,49.15
2023-01-19T06:33:20.692Z,48.85
2023-01-19T06:33:55.507Z,67.63
2023-01-19T06:34:29.153Z,77.40
2023-01-19T06:35:03.000Z,64.07
2023-01-19T06:35:37.895Z,75.80
2023-01-19T06:36:10.323Z,67.93
2023-01-19T06:36:42.549Z,67.22
2023-01-19T06:37:17.984Z,86.70
2023-01-19T06:37:50.335Z,62.72
2023-01-19T06:38:23.374Z,59.40
2023-01-19T06:38:58.377Z,54.42
2023-01-19T06:39:30.470Z,46.85
2023-01-19T06:40:07.267Z,58.13
2023-01-19T06:40:45.146Z,61.72
2023-01-19T06:41:17.203Z,54.70
2023-01-19T06:41:51.994Z,40.42
2023-01-19T06:42:24.123Z,49.03
2023-01-19T06:43:04.275Z,52.72
2023-01-19T06:43:36.648Z,89.65
2023-01-19T06:44:11.565Z,73.00
2023-01-19T06:44:47.633Z,68.30
2023-01-19T06:45:19.832Z,82.88
2023-01-19T06:45:52.248Z,61.95
2023-01-19T06:46:29.800Z,63.80
2023-01-19T06:47:15.002Z,78.15
2023-01-19T06:47:51.904Z,57.70
2023-01-19T06:48:24.664Z,49.28
2023-01-19T06:48:57.111Z,58.97
2023-01-19T06:49:31.825Z,67.15
2023-01-19T06:50:04.247Z,53.72
2023-01-19T06:50:39.017Z,70.38
2023-01-19T06:51:14.837Z,65.30
2023-01-19T06:51:49.947Z,49.35
2023-01-19T06:52:22.707Z,34.65
2023-01-19T06:52:55.117Z,24.23
2023-01-19T06:53:34.565Z,33.45
2023-01-19T06:54:09.369Z,34.80
2023-01-19T06:54:45.458Z,47.53
2023-01-19T06:55:17.851Z,56.70
2023-01-19T06:55:52.872Z,21.65
2023-01-19T06:56:27.731Z,39.92
2023-01-19T06:57:07.719Z,33.53
2023-01-19T06:57:48.828Z,27.63
2023-01-19T06:58:26.368Z,39.60
2023-01-19T06:59:01.189Z,45.10
2023-01-19T06:59:33.361Z,50.90
2023-01-19T07:00:08.977Z,44.50
2023-01-19T07:00:43.966Z,37.17
2023-01-19T07:01:16.687Z,40.33
2023-01-19T07:01:51.542Z,46.40
2023-01-19T07:02:27.794Z,63.28
2023-01-19T07:03:01.018Z,57.40
2023-01-19T07:03:37.367Z,53.42
2023-01-19T07:04:10.757Z,41.65
2023-01-19T07:04:42.862Z,94.22
2023-01-19T07:05:17.735Z,49.17
2023-01-19T07:05:52.297Z,46.03
2023-01-19T07:06:27.567Z,56.78
2023-01-19T07:06:59.725Z,67.93
2023-01-19T07:07:42.695Z,53.05
2023-01-19T07:08:17.974Z,41.17
2023-01-19T07:08:57.507Z,32.70
2023-01-19T07:11:25.006Z,47.83
2023-01-19T07:11:25.361Z,50.08
2023-01-19T07:11:48.360Z,79.00
2023-01-19T07:12:20.620Z,70.18
2023-01-19T07:12:55.387Z,73.15
2023-01-19T07:13:30.702Z,77.07
2023-01-19T07:14:04.140Z,77.45
2023-01-19T07:14:38.822Z,75.97
2023-01-19T07:15:11.909Z,71.50
2023-01-19T07:15:46.690Z,81.50
2023-01-19T07:16:18.993Z,56.58
2023-01-19T07:16:55.503Z,49.78
2023-01-19T07:17:32.473Z,87.18
2023-01-19T07:18:07.775Z,64.22
2023-01-19T07:18:43.786Z,84.63
2023-01-19T07:19:36.983Z,74.97
2023-01-19T07:20:14.506Z,68.22
2023-01-19T07:20:49.278Z,55.17
2023-01-19T07:21:25.078Z,70.85
2023-01-19T07:21:58.406Z,57.53
2023-01-19T07:22:30.549Z,75.75
2023-01-19T07:23:05.708Z,69.40
2023-01-19T07:23:38.691Z,20.58
2023-01-19T07:24:13.374Z,28.10
2023-01-19T07:24:45.479Z,47.25
2023-01-19T07:25:17.633Z,68.60
2023-01-19T07:25:52.460Z,57.45
2023-01-19T07:26:25.446Z,59.17
2023-01-19T07:27:00.147Z,59.00
2023-01-19T07:27:32.263Z,72.38
2023-01-19T07:28:07.295Z,83.22
2023-01-19T07:28:42.002Z,81.88
2023-01-19T07:29:16.859Z,49.67
2023-01-19T07:29:48.979Z,38.58
2023-01-19T07:30:23.960Z,59.03
2023-01-19T07:30:59.789Z,42.53
2023-01-19T07:31:34.693Z,57.20
2023-01-19T07:32:07.672Z,68.50
2023-01-19T07:32:42.701Z,50.25
2023-01-19T07:33:14.894Z,38.25
2023-01-19T07:33:47.434Z,52.25
2023-01-19T07:34:22.357Z,72.53
2023-01-19T07:34:54.570Z,63.72
2023-01-19T07:35:27.228Z,58.08
2023-01-19T07:36:02.002Z,70.63
2023-01-19T07:36:34.189Z,44.22
2023-01-19T07:37:06.308Z,102.97
2023-01-19T07:37:41.081Z,39.25
2023-01-19T07:38:13.282Z,38.35
2023-01-19T07:38:48.024Z,38.53
2023-01-19T07:39:20.224Z,42.72
2023-01-19T07:39:52.364Z,21.65
2023-01-19T07:40:27.164Z,34.00
2023-01-19T07:41:03.629Z,48.40
2023-01-19T07:41:38.299Z,44.42
2023-01-19T07:42:12.670Z,28.10
2023-01-19T07:42:52.135Z,50.67
2023-01-19T07:43:24.268Z,40.10
2023-01-19T07:43:58.998Z,56.90
2023-01-19T07:44:33.643Z,48.65
2023-01-19T07:45:06.876Z,67.53
2023-01-19T07:45:42.146Z,32.35
2023-01-19T07:46:14.674Z,65.47
2023-01-19T07:46:46.818Z,65.38
2023-01-19T07:47:21.719Z,72.20
2023-01-19T07:47:53.860Z,52.63
2023-01-19T07:48:30.565Z,67.80
2023-01-19T07:49:02.791Z,48.63
2023-01-19T07:49:35.636Z,43.78
2023-01-19T07:50:12.252Z,47.85
2023-01-19T07:50:44.940Z,53.40
2023-01-19T07:51:19.004Z,53.38
2023-01-19T07:51:56.366Z,81.43
2023-01-19T07:52:28.477Z,68.20
2023-01-19T07:53:08.227Z,69.85
2023-01-19T07:53:42.009Z,51.78
2023-01-19T07:54:14.255Z,85.63
2023-01-19T07:54:50.992Z,59.58
2023-01-19T07:55:24.276Z,40.97
2023-01-19T07:55:56.944Z,50.08
2023-01-19T07:56:33.933Z,67.28
2023-01-19T07:57:06.265Z,60.83
2023-01-19T07:57:41.055Z,52.10
2023-01-19T07:58:13.202Z,48.28
2023-01-19T07:58:50.038Z,44.10
2023-01-19T07:59:25.104Z,42.70
2023-01-19T07:59:57.519Z,61.80
2023-01-19T08:00:33.260Z,102.28
2023-01-19T08:01:07.529Z,62.10
2023-01-19T08:01:40.491Z,118.90
2023-01-19T08:02:16.446Z,56.58
2023-01-19T08:02:51.297Z,41.47
2023-01-19T08:03:26.090Z,77.70
2023-01-19T08:03:58.176Z,97.45
2023-01-19T08:04:32.991Z,83.85
2023-01-19T08:05:05.959Z,49.00
2023-01-19T08:05:38.486Z,35.15
2023-01-19T08:06:19.954Z,57.90
2023-01-19T08:06:52.373Z,54.03
2023-01-19T08:07:24.613Z,63.63
2023-01-19T08:08:00.556Z,49.63
2023-01-19T08:08:32.977Z,49.00
2023-01-19T08:09:08.591Z,36.13
2023-01-19T08:09:40.932Z,52.95
2023-01-19T08:10:17.146Z,63.25
2023-01-19T08:10:50.751Z,79.15
2023-01-19T08:11:22.921Z,76.25
2023-01-19T08:11:57.795Z,58.70
2023-01-19T08:12:30.251Z,90.18
2023-01-19T08:13:04.942Z,75.20
2023-01-19T08:13:37.083Z,65.32
2023-01-19T08:14:09.496Z,74.53
2023-01-19T08:14:47.048Z,103.50
2023-01-19T08:15:19.186Z,80.20
2023-01-19T08:15:52.253Z,88.57
2023-01-19T08:16:27.156Z,76.30
2023-01-19T08:16:59.959Z,67.85
2023-01-19T08:17:32.181Z,82.93
2023-01-19T08:18:09.848Z,78.30
2023-01-19T08:18:42.680Z,66.88
2023-01-19T08:19:14.810Z,84.15
2023-01-19T08:19:49.540Z,77.18
2023-01-19T08:20:23.385Z,84.22
2023-01-19T08:20:58.308Z,68.95
2023-01-19T08:21:30.625Z,87.53
2023-01-19T08:22:06.076Z,53.10
2023-01-19T08:22:38.324Z,97.05
2023-01-19T08:23:13.332Z,76.25
2023-01-19T08:23:51.804Z,93.15
2023-01-19T08:24:28.692Z,80.85
2023-01-19T08:25:00.889Z,59.03
2023-01-19T08:25:34.356Z,89.05
2023-01-19T08:26:21.362Z,53.50
2023-01-19T08:26:59.400Z,50.70
2023-01-19T08:27:34.228Z,59.05
2023-01-19T08:28:07.375Z,55.78
2023-01-19T08:28:42.130Z,60.70
2023-01-19T08:29:14.300Z,47.88
2023-01-19T08:29:51.598Z,47.83
2023-01-19T08:30:26.808Z,94.95
2023-01-19T08:31:11.253Z,52.67
2023-01-19T08:31:55.686Z,50.75
2023-01-19T08:32:27.924Z,70.35
2023-01-19T08:33:08.354Z,63.08
2023-01-19T08:34:15.068Z,72.97
2023-01-19T08:34:47.247Z,77.75
2023-01-19T08:35:19.345Z,54.67
2023-01-19T08:35:56.612Z,64.32
2023-01-19T08:36:28.818Z,123.90
2023-01-19T08:37:03.561Z,73.47
2023-01-19T08:37:35.811Z,78.18
2023-01-19T08:38:09.638Z,53.50
2023-01-19T08:38:45.073Z,68.95
2023-01-19T08:39:18.306Z,65.32
2023-01-19T08:39:54.029Z,58.22
2023-01-19T08:40:26.756Z,63.92
2023-01-19T08:40:58.916Z,101.28
2023-01-19T08:41:33.645Z,99.93
2023-01-19T08:42:05.880Z,92.72
2023-01-19T08:42:38.046Z,91.05
2023-01-19T08:43:15.390Z,114.85
2023-01-19T08:43:47.760Z,66.30
2023-01-19T08:44:20.056Z,124.05
2023-01-19T08:44:58.293Z,96.35
2023-01-19T08:45:31.240Z,103.18
2023-01-19T08:46:03.888Z,99.55
2023-01-19T08:46:38.715Z,107.13
2023-01-19T08:47:10.881Z,67.07
2023-01-19T08:47:45.490Z,56.20
2023-01-19T08:48:22.213Z,63.67
2023-01-19T08:48:55.045Z,76.57
2023-01-19T08:49:30.559Z,76.03
2023-01-19T08:50:02.733Z,77.60
2023-01-19T08:50:37.918Z,92.57
2023-01-19T08:51:10.139Z,69.07
2023-01-19T08:51:46.996Z,71.00
2023-01-19T08:52:19.213Z,75.18
2023-01-19T08:52:52.009Z,56.83
2023-01-19T08:53:26.984Z,88.07
2023-01-19T08:53:59.121Z,90.47
2023-01-19T08:54:33.911Z,106.53
2023-01-19T08:55:08.053Z,90.05
2023-01-19T08:55:40.795Z,61.55
2023-01-19T08:56:16.384Z,67.68
2023-01-19T08:56:48.691Z,109.25
2023-01-19T08:57:23.415Z,62.17
2023-01-19T08:57:58.205Z,61.50
2023-01-19T08:58:30.539Z,73.00
2023-01-19T08:59:09.936Z,74.22
2023-01-19T08:59:42.584Z,58.22
2023-01-19T09:00:18.970Z,134.35
2023-01-19T09:00:53.757Z,75.25
2023-01-19T09:01:26.033Z,68.93
2023-01-19T09:02:00.906Z,55.90
2023-01-19T09:02:33.170Z,73.28
2023-01-19T09:03:09.572Z,65.22
2023-01-19T09:03:41.820Z,51.25
2023-01-19T09:04:16.549Z,69.45
2023-01-19T09:04:49.005Z,67.35
2023-01-19T09:05:23.811Z,83.93
2023-01-19T09:05:56.056Z,47.55
2023-01-19T09:06:28.553Z,61.67
2023-01-19T09:07:03.329Z,99.00
2023-01-19T09:07:35.806Z,51.85
2023-01-19T09:08:10.295Z,61.35
2023-01-19T09:08:45.239Z,48.13
2023-01-19T09:09:19.736Z,44.15
2023-01-19T09:09:51.902Z,100.43
2023-01-19T09:10:26.675Z,67.10
2023-01-19T09:10:59.133Z,61.50
2023-01-19T09:11:35.131Z,69.65
2023-01-19T09:12:07.628Z,94.78
2023-01-19T09:12:39.932Z,55.85
2023-01-19T09:13:15.479Z,66.90
2023-01-19T09:13:47.658Z,58.45
2023-01-19T09:14:22.471Z,39.42
2023-01-19T09:14:55.191Z,68.82
2023-01-19T09:15:30.015Z,50.22
2023-01-19T09:16:07.764Z,67.07
2023-01-19T09:16:40.046Z,81.20
2023-01-19T09:17:14.902Z,96.25
2023-01-19T09:17:46.983Z,80.15
2023-01-19T09:18:21.325Z,61.17
2023-01-19T09:18:56.254Z,68.00
2023-01-19T09:19:28.422Z,54.63
2023-01-19T09:20:00.654Z,68.45
2023-01-19T09:20:36.852Z,62.58
2023-01-19T09:21:09.611Z,56.58
2023-01-19T09:21:44.453Z,55.97
2023-01-19T09:22:16.707Z,55.90
2023-01-19T09:22:48.947Z,63.22
2023-01-19T09:23:23.920Z,88.25
2023-01-19T09:23:56.419Z,46.42
2023-01-19T09:24:31.145Z,70.90
2023-01-19T09:25:03.248Z,56.40
2023-01-19T09:25:37.966Z,56.15
2023-01-19T09:26:10.452Z,91.90
2023-01-19T09:26:45.156Z,68.20
2023-01-19T09:27:17.313Z,84.45
2023-01-19T09:27:49.464Z,51.15
2023-01-19T09:28:24.314Z,65.72
2023-01-19T09:28:56.515Z,52.08
2023-01-19T09:29:28.683Z,89.53
2023-01-19T09:30:03.394Z,45.90
2023-01-19T09:30:39.520Z,78.32
2023-01-19T09:31:11.818Z,75.60
2023-01-19T09:31:46.694Z,71.72
2023-01-19T09:32:19.567Z,67.55
2023-01-19T09:32:51.684Z,60.85
2023-01-19T09:33:27.937Z,71.95
2023-01-19T09:34:00.262Z,88.32
2023-01-19T09:34:34.952Z,61.97
2023-01-19T09:35:07.539Z,86.05
2023-01-19T09:35:40.983Z,112.05
2023-01-19T09:36:15.735Z,82.90
2023-01-19T09:36:47.967Z,121.88
2023-01-19T09:37:20.106Z,87.63
2023-01-19T09:37:54.965Z,79.85
2023-01-19T09:38:31.595Z,82.97
2023-01-19T09:39:06.947Z,102.65
2023-01-19T09:39:39.185Z,58.22
2023-01-19T09:40:12.918Z,78.18
2023-01-19T09:40:51.890Z,72.13
2023-01-19T09:41:26.188Z,58.70
2023-01-19T09:42:08.037Z,69.97
2023-01-19T09:42:43.865Z,66.95
2023-01-19T09:43:24.243Z,78.68
2023-01-19T09:43:59.629Z,76.40
2023-01-19T09:44:38.318Z,37.83
2023-01-19T09:45:16.924Z,51.88
2023-01-19T09:45:59.736Z,53.20
2023-01-19T09:46:39.954Z,60.47
2023-01-19T09:47:18.329Z,70.57
2023-01-19T09:47:54.101Z,70.05
2023-01-19T09:48:33.618Z,104.22
2023-01-19T09:49:15.644Z,125.18
2023-01-19T09:49:53.904Z,68.97
2023-01-19T09:50:34.193Z,87.70
2023-01-19T09:51:12.258Z,74.38
2023-01-19T09:51:49.736Z,50.13
2023-01-19T09:52:22.513Z,55.67
2023-01-19T09:52:57.502Z,77.28
2023-01-19T09:53:44.945Z,62.97
2023-01-19T09:54:19.489Z,69.00
2023-01-19T09:54:57.756Z,93.22
2023-01-19T09:55:30.997Z,75.07
2023-01-19T09:56:05.786Z,97.72
2023-01-19T09:56:38.696Z,56.90
2023-01-19T09:57:14.926Z,50.20
2023-01-19T09:57:47.130Z,80.35
2023-01-19T09:58:22.267Z,56.30
2023-01-19T09:58:54.477Z,65.15
2023-01-19T09:59:32.024Z,89.10
2023-01-19T11:40:14.464Z,112.65
2023-01-19T11:40:52.970Z,155.98
2023-01-19T11:41:31.979Z,126.13
2023-01-19T11:42:06.426Z,102.10
2023-01-19T11:42:41.406Z,95.20
2023-01-19T11:43:14.090Z,117.78
2023-01-19T11:43:51.790Z,148.75
2023-01-19T11:44:29.370Z,100.47
2023-01-19T11:45:07.847Z,100.20
2023-01-19T11:45:40.297Z,90.68
2023-01-19T11:46:16.073Z,132.98
2023-01-19T11:46:54.123Z,97.15
2023-01-19T11:47:33.306Z,96.85
2023-01-19T11:48:07.519Z,120.63
2023-01-19T11:48:47.855Z,126.68
2023-01-19T11:49:26.424Z,117.75
2023-01-19T11:50:05.547Z,94.22
2023-01-19T11:50:42.746Z,117.13
2023-01-19T11:51:22.937Z,132.43
2023-01-19T11:52:02.452Z,87.25
2023-01-19T11:52:43.162Z,95.28
2023-01-19T11:53:22.547Z,100.35
2023-01-19T11:53:57.275Z,115.93
2023-01-19T11:54:35.024Z,121.35
2023-01-19T11:55:21.370Z,121.63
2023-01-19T11:55:57.296Z,125.10
2023-01-19T11:56:32.407Z,115.32
2023-01-19T11:57:12.194Z,116.75
2023-01-19T11:57:50.702Z,121.30
2023-01-19T11:58:24.223Z,103.40
2023-01-19T11:58:59.483Z,105.82
2023-01-19T11:59:31.584Z,100.05
2023-01-19T12:00:20.290Z,80.60
2023-01-19T12:00:58.037Z,126.72
2023-01-19T12:01:35.897Z,112.03
2023-01-19T12:02:17.837Z,98.07
2023-01-19T12:02:56.380Z,139.38
2023-01-19T12:03:33.221Z,82.80
2023-01-19T12:04:15.740Z,72.28
2023-01-19T12:04:50.332Z,83.55
2023-01-19T12:05:29.806Z,96.43
2023-01-19T12:06:05.893Z,68.18
2023-01-19T12:06:44.760Z,94.93
2023-01-19T12:07:23.924Z,74.00
2023-01-19T12:08:02.569Z,101.75
2023-01-19T12:08:39.940Z,90.47
2023-01-19T12:09:17.921Z,77.28
2023-01-19T12:09:54.116Z,97.20
2023-01-19T12:10:35.873Z,101.65
2023-01-19T12:11:11.214Z,127.05
2023-01-19T12:11:49.255Z,87.03
2023-01-19T12:12:29.057Z,84.72
2023-01-19T12:13:04.500Z,80.22
2023-01-19T12:13:37.641Z,129.02
2023-01-19T12:14:22.180Z,79.47
2023-01-19T12:15:00.948Z,93.85
2023-01-19T12:15:41.054Z,91.00
2023-01-19T12:16:19.894Z,91.75
2023-01-19T12:16:59.581Z,80.30
2023-01-19T12:17:36.109Z,63.47
2023-01-19T12:18:18.977Z,117.85
2023-01-19T12:18:55.801Z,86.50
2023-01-19T12:19:45.771Z,111.60
2023-01-19T12:20:27.141Z,112.05
2023-01-19T12:21:03.991Z,104.18
2023-01-19T12:21:36.956Z,117.60
2023-01-19T12:22:16.836Z,97.75
2023-01-19T12:22:55.631Z,130.80
2023-01-19T12:23:52.749Z,105.07
2023-01-19T12:24:35.948Z,100.15
2023-01-19T12:25:21.651Z,112.20
2023-01-19T12:26:07.285Z,82.03
2023-01-19T12:26:51.676Z,83.05
2023-01-19T12:27:36.393Z,83.88
2023-01-19T12:28:15.407Z,109.40
2023-01-19T12:28:50.046Z,100.50
2023-01-19T12:29:27.452Z,101.95
2023-01-19T12:30:00.003Z,123.07
2023-01-19T12:30:35.059Z,73.95
2023-01-19T12:31:08.494Z,93.70
2023-01-19T12:31:44.943Z,105.03
2023-01-19T12:32:18.934Z,81.90
2023-01-19T12:32:51.481Z,74.93
2023-01-19T12:33:36.945Z,71.05
2023-01-19T12:34:42.310Z,80.18
2023-01-19T12:35:44.399Z,96.10
2023-01-19T12:36:41.174Z,114.38
2023-01-19T12:37:33.818Z,119.78
2023-01-19T12:38:45.028Z,98.38
2023-01-19T12:39:19.092Z,113.47
2023-01-19T12:39:53.827Z,88.32
2023-01-19T12:40:28.097Z,123.63
2023-01-19T12:41:26.045Z,93.78
2023-01-19T12:42:16.967Z,88.15
2023-01-19T12:42:59.367Z,103.50
2023-01-19T12:43:34.162Z,92.93
2023-01-19T12:44:34.409Z,115.50
2023-01-19T12:45:13.830Z,88.15
2023-01-19T12:45:49.199Z,67.38
2023-01-19T12:46:29.338Z,115.50
2023-01-19T12:47:21.196Z,154.27
2023-01-19T12:47:56.864Z,119.00
2023-01-19T12:48:35.277Z,109.43
2023-01-19T12:49:12.910Z,109.60
2023-01-19T12:49:49.801Z,91.03
2023-01-19T12:50:25.833Z,103.82
2023-01-19T12:51:00.668Z,82.65
2023-01-19T12:51:33.341Z,116.13
2023-01-19T12:52:17.886Z,127.18
2023-01-19T12:52:57.504Z,114.97
2023-01-19T12:53:30.992Z,92.50
2023-01-19T12:54:07.993Z,95.82
2023-01-19T12:54:53.028Z,105.72